sensor_id;sensor_type;location;lat;lon;timestamp;P1;durP1;ratioP1;P2;durP2;ratioP2
51529;SDS011;37613;51.788;21.582;2022-07-29T00:01:33;15.50;;;6.00;;
51529;SDS011;37613;51.788;21.582;2022-07-29T00:05:35;19.40;;;6.10;;
51529;SDS011;37613;51.788;21.582;2022-07-29T00:09:37;10.90;;;5.60;;
51529;SDS011;37613;51.788;21.582;2022-07-29T00:13:39;9.80;;;5.30;;
51529;SDS011;37613;51.788;21.582;2022-07-29T00:17:42;18.80;;;6.20;;
51529;SDS011;37613;51.788;21.582;2022-07-29T00:21:44;11.50;;;5.80;;
51529;SDS011;37613;51.788;21.582;2022-07-29T00:25:46;10.00;;;5.00;;
51529;SDS011;37613;51.788;21.582;2022-07-29T00:29:48;13.20;;;5.50;;
51529;SDS011;37613;51.788;21.582;2022-07-29T00:33:50;10.40;;;5.00;;
51529;SDS011;37613;51.788;21.582;2022-07-29T00:37:51;13.40;;;4.70;;
51529;SDS011;37613;51.788;21.582;2022-07-29T00:41:53;11.30;;;4.70;;
51529;SDS011;37613;51.788;21.582;2022-07-29T00:45:55;10.00;;;5.30;;
51529;SDS011;37613;51.788;21.582;2022-07-29T00:49:57;12.50;;;5.20;;
51529;SDS011;37613;51.788;21.582;2022-07-29T00:53:59;10.50;;;5.00;;
51529;SDS011;37613;51.788;21.582;2022-07-29T00:58:01;9.30;;;5.20;;
51529;SDS011;37613;51.788;21.582;2022-07-29T01:02:03;11.30;;;5.10;;
51529;SDS011;37613;51.788;21.582;2022-07-29T01:06:05;7.60;;;4.20;;
51529;SDS011;37613;51.788;21.582;2022-07-29T01:10:09;8.50;;;5.10;;
51529;SDS011;37613;51.788;21.582;2022-07-29T01:14:13;9.20;;;4.90;;
51529;SDS011;37613;51.788;21.582;2022-07-29T01:18:18;20.60;;;9.00;;
51529;SDS011;37613;51.788;21.582;2022-07-29T01:26:45;14.80;;;6.90;;
51529;SDS011;37613;51.788;21.582;2022-07-29T01:31:12;18.30;;;6.30;;
51529;SDS011;37613;51.788;21.582;2022-07-29T01:35:22;13.90;;;5.80;;
51529;SDS011;37613;51.788;21.582;2022-07-29T01:39:27;19.60;;;6.70;;
51529;SDS011;37613;51.788;21.582;2022-07-29T01:43:35;14.10;;;5.30;;
51529;SDS011;37613;51.788;21.582;2022-07-29T01:47:43;12.20;;;5.20;;
51529;SDS011;37613;51.788;21.582;2022-07-29T01:51:53;15.10;;;4.80;;
51529;SDS011;37613;51.788;21.582;2022-07-29T01:56:01;12.10;;;4.30;;
51529;SDS011;37613;51.788;21.582;2022-07-29T02:00:05;10.30;;;4.60;;
51529;SDS011;37613;51.788;21.582;2022-07-29T02:04:08;15.20;;;4.90;;
51529;SDS011;37613;51.788;21.582;2022-07-29T02:08:12;12.30;;;4.40;;
51529;SDS011;37613;51.788;21.582;2022-07-29T02:12:17;8.70;;;3.70;;
51529;SDS011;37613;51.788;21.582;2022-07-29T02:16:21;11.50;;;4.10;;
51529;SDS011;37613;51.788;21.582;2022-07-29T02:20:25;6.30;;;3.70;;
51529;SDS011;37613;51.788;21.582;2022-07-29T02:24:28;7.30;;;3.60;;
51529;SDS011;37613;51.788;21.582;2022-07-29T02:28:32;8.00;;;3.30;;
51529;SDS011;37613;51.788;21.582;2022-07-29T02:36:39;6.50;;;3.70;;
51529;SDS011;37613;51.788;21.582;2022-07-29T02:40:41;9.10;;;2.80;;
51529;SDS011;37613;51.788;21.582;2022-07-29T03:15:34;5.80;;;2.90;;
51529;SDS011;37613;51.788;21.582;2022-07-29T03:19:37;7.10;;;2.90;;
51529;SDS011;37613;51.788;21.582;2022-07-29T03:23:43;11.00;;;3.30;;
51529;SDS011;37613;51.788;21.582;2022-07-29T03:27:48;8.70;;;2.90;;
51529;SDS011;37613;51.788;21.582;2022-07-29T03:31:50;15.90;;;5.50;;
51529;SDS011;37613;51.788;21.582;2022-07-29T03:35:52;13.00;;;5.20;;
51529;SDS011;37613;51.788;21.582;2022-07-29T03:39:55;11.90;;;4.90;;
51529;SDS011;37613;51.788;21.582;2022-07-29T03:43:58;17.80;;;4.90;;
51529;SDS011;37613;51.788;21.582;2022-07-29T03:48:02;11.10;;;4.70;;
51529;SDS011;37613;51.788;21.582;2022-07-29T03:52:11;12.30;;;4.40;;
51529;SDS011;37613;51.788;21.582;2022-07-29T03:56:15;13.10;;;4.20;;
51529;SDS011;37613;51.788;21.582;2022-07-29T04:00:22;10.90;;;4.20;;
51529;SDS011;37613;51.788;21.582;2022-07-29T04:04:25;9.10;;;3.40;;
51529;SDS011;37613;51.788;21.582;2022-07-29T04:08:27;9.50;;;3.90;;
51529;SDS011;37613;51.788;21.582;2022-07-29T04:12:29;11.10;;;3.80;;
51529;SDS011;37613;51.788;21.582;2022-07-29T04:16:36;6.80;;;3.20;;
51529;SDS011;37613;51.788;21.582;2022-07-29T04:20:38;6.60;;;3.00;;
51529;SDS011;37613;51.788;21.582;2022-07-29T04:24:40;6.00;;;2.80;;
51529;SDS011;37613;51.788;21.582;2022-07-29T04:28:41;5.80;;;2.60;;
51529;SDS011;37613;51.788;21.582;2022-07-29T04:32:44;11.00;;;3.40;;
51529;SDS011;37613;51.788;21.582;2022-07-29T04:36:46;6.20;;;3.30;;
51529;SDS011;37613;51.788;21.582;2022-07-29T04:40:48;9.50;;;2.70;;
51529;SDS011;37613;51.788;21.582;2022-07-29T04:44:49;4.10;;;2.10;;
51529;SDS011;37613;51.788;21.582;2022-07-29T04:48:51;7.80;;;2.40;;
51529;SDS011;37613;51.788;21.582;2022-07-29T04:56:55;4.70;;;2.20;;
51529;SDS011;37613;51.788;21.582;2022-07-29T05:00:57;4.30;;;2.10;;
51529;SDS011;37613;51.788;21.582;2022-07-29T05:05:00;3.80;;;2.00;;
51529;SDS011;37613;51.788;21.582;2022-07-29T05:09:02;3.10;;;1.70;;
51529;SDS011;37613;51.788;21.582;2022-07-29T05:13:05;5.40;;;2.10;;
51529;SDS011;37613;51.788;21.582;2022-07-29T05:21:59;3.30;;;1.70;;
51529;SDS011;37613;51.788;21.582;2022-07-29T05:26:03;4.50;;;1.70;;
51529;SDS011;37613;51.788;21.582;2022-07-29T05:30:06;3.80;;;1.30;;
51529;SDS011;37613;51.788;21.582;2022-07-29T05:34:08;3.80;;;1.40;;
51529;SDS011;37613;51.788;21.582;2022-07-29T05:38:10;2.90;;;1.40;;
51529;SDS011;37613;51.788;21.582;2022-07-29T05:42:12;3.70;;;1.60;;
51529;SDS011;37613;51.788;21.582;2022-07-29T05:46:13;7.30;;;1.40;;
51529;SDS011;37613;51.788;21.582;2022-07-29T05:50:15;1.40;;;1.20;;
51529;SDS011;37613;51.788;21.582;2022-07-29T05:54:17;1.30;;;1.00;;
51529;SDS011;37613;51.788;21.582;2022-07-29T05:58:19;1.80;;;1.30;;
51529;SDS011;37613;51.788;21.582;2022-07-29T06:02:21;2.40;;;1.40;;
51529;SDS011;37613;51.788;21.582;2022-07-29T06:06:23;3.90;;;1.50;;
51529;SDS011;37613;51.788;21.582;2022-07-29T06:10:25;3.00;;;1.50;;
51529;SDS011;37613;51.788;21.582;2022-07-29T06:14:28;4.00;;;1.50;;
51529;SDS011;37613;51.788;21.582;2022-07-29T06:18:30;3.90;;;1.30;;
51529;SDS011;37613;51.788;21.582;2022-07-29T06:22:32;2.80;;;0.90;;
51529;SDS011;37613;51.788;21.582;2022-07-29T06:26:36;5.70;;;1.60;;
51529;SDS011;37613;51.788;21.582;2022-07-29T06:30:38;7.80;;;1.50;;
51529;SDS011;37613;51.788;21.582;2022-07-29T06:34:41;1.70;;;0.90;;
51529;SDS011;37613;51.788;21.582;2022-07-29T06:38:45;3.00;;;1.20;;
51529;SDS011;37613;51.788;21.582;2022-07-29T06:42:47;3.90;;;1.20;;
51529;SDS011;37613;51.788;21.582;2022-07-29T06:46:49;2.70;;;0.90;;
51529;SDS011;37613;51.788;21.582;2022-07-29T06:50:52;2.60;;;1.10;;
51529;SDS011;37613;51.788;21.582;2022-07-29T06:54:55;3.60;;;1.00;;
51529;SDS011;37613;51.788;21.582;2022-07-29T06:58:56;3.10;;;1.40;;
51529;SDS011;37613;51.788;21.582;2022-07-29T07:02:58;1.90;;;1.00;;
51529;SDS011;37613;51.788;21.582;2022-07-29T07:07:00;2.30;;;1.00;;
51529;SDS011;37613;51.788;21.582;2022-07-29T07:11:02;3.70;;;0.80;;
51529;SDS011;37613;51.788;21.582;2022-07-29T07:15:05;3.40;;;1.40;;
51529;SDS011;37613;51.788;21.582;2022-07-29T07:19:08;6.00;;;0.80;;
51529;SDS011;37613;51.788;21.582;2022-07-29T07:23:10;5.40;;;1.20;;
51529;SDS011;37613;51.788;21.582;2022-07-29T07:27:12;1.70;;;0.90;;
51529;SDS011;37613;51.788;21.582;2022-07-29T07:31:14;5.70;;;0.80;;
51529;SDS011;37613;51.788;21.582;2022-07-29T07:35:16;3.20;;;0.90;;
51529;SDS011;37613;51.788;21.582;2022-07-29T07:39:18;2.10;;;1.00;;
51529;SDS011;37613;51.788;21.582;2022-07-29T07:43:19;4.50;;;1.00;;
51529;SDS011;37613;51.788;21.582;2022-07-29T07:47:23;1.50;;;0.80;;
51529;SDS011;37613;51.788;21.582;2022-07-29T07:51:25;3.30;;;0.80;;
51529;SDS011;37613;51.788;21.582;2022-07-29T07:55:28;6.00;;;0.90;;
51529;SDS011;37613;51.788;21.582;2022-07-29T07:59:29;3.30;;;0.80;;
51529;SDS011;37613;51.788;21.582;2022-07-29T08:03:32;1.80;;;0.80;;
51529;SDS011;37613;51.788;21.582;2022-07-29T08:07:34;3.00;;;0.80;;
51529;SDS011;37613;51.788;21.582;2022-07-29T08:11:37;1.40;;;0.80;;
51529;SDS011;37613;51.788;21.582;2022-07-29T08:15:39;3.10;;;1.00;;
51529;SDS011;37613;51.788;21.582;2022-07-29T08:19:42;4.90;;;1.00;;
51529;SDS011;37613;51.788;21.582;2022-07-29T08:23:44;2.10;;;0.90;;
51529;SDS011;37613;51.788;21.582;2022-07-29T08:27:48;3.60;;;0.80;;
51529;SDS011;37613;51.788;21.582;2022-07-29T08:31:50;3.40;;;0.80;;
51529;SDS011;37613;51.788;21.582;2022-07-29T08:35:52;3.00;;;0.80;;
51529;SDS011;37613;51.788;21.582;2022-07-29T08:39:53;3.00;;;0.80;;
51529;SDS011;37613;51.788;21.582;2022-07-29T08:43:55;1.80;;;0.80;;
51529;SDS011;37613;51.788;21.582;2022-07-29T08:47:58;1.40;;;0.70;;
51529;SDS011;37613;51.788;21.582;2022-07-29T08:52:00;3.10;;;0.70;;
51529;SDS011;37613;51.788;21.582;2022-07-29T09:00:04;6.50;;;2.90;;
51529;SDS011;37613;51.788;21.582;2022-07-29T09:04:10;4.60;;;0.80;;
51529;SDS011;37613;51.788;21.582;2022-07-29T09:08:13;3.90;;;0.90;;
51529;SDS011;37613;51.788;21.582;2022-07-29T09:12:16;1.70;;;0.70;;
51529;SDS011;37613;51.788;21.582;2022-07-29T09:16:18;1.80;;;0.80;;
51529;SDS011;37613;51.788;21.582;2022-07-29T09:20:21;1.40;;;0.90;;
51529;SDS011;37613;51.788;21.582;2022-07-29T09:28:41;5.50;;;3.90;;
51529;SDS011;37613;51.788;21.582;2022-07-29T09:33:00;2.70;;;1.00;;
51529;SDS011;37613;51.788;21.582;2022-07-29T09:37:04;1.10;;;0.70;;
51529;SDS011;37613;51.788;21.582;2022-07-29T09:41:06;5.00;;;1.10;;
51529;SDS011;37613;51.788;21.582;2022-07-29T09:45:10;1.80;;;1.00;;
51529;SDS011;37613;51.788;21.582;2022-07-29T09:49:12;2.70;;;0.80;;
51529;SDS011;37613;51.788;21.582;2022-07-29T09:53:32;1.90;;;0.70;;
51529;SDS011;37613;51.788;21.582;2022-07-29T09:57:34;3.50;;;0.60;;
51529;SDS011;37613;51.788;21.582;2022-07-29T10:01:37;0.70;;;0.60;;
51529;SDS011;37613;51.788;21.582;2022-07-29T10:05:39;6.40;;;0.50;;
51529;SDS011;37613;51.788;21.582;2022-07-29T10:09:51;1.60;;;0.80;;
51529;SDS011;37613;51.788;21.582;2022-07-29T10:13:55;3.00;;;2.20;;
51529;SDS011;37613;51.788;21.582;2022-07-29T10:17:58;1.60;;;0.60;;
51529;SDS011;37613;51.788;21.582;2022-07-29T10:22:02;3.40;;;0.80;;
51529;SDS011;37613;51.788;21.582;2022-07-29T10:26:05;1.00;;;0.70;;
51529;SDS011;37613;51.788;21.582;2022-07-29T10:30:07;3.10;;;0.80;;
51529;SDS011;37613;51.788;21.582;2022-07-29T10:42:30;2.00;;;0.90;;
51529;SDS011;37613;51.788;21.582;2022-07-29T10:46:36;3.20;;;0.60;;
51529;SDS011;37613;51.788;21.582;2022-07-29T10:50:52;1.30;;;0.60;;
51529;SDS011;37613;51.788;21.582;2022-07-29T10:55:00;2.50;;;0.80;;
51529;SDS011;37613;51.788;21.582;2022-07-29T11:17:00;1.50;;;0.80;;
51529;SDS011;37613;51.788;21.582;2022-07-29T11:21:01;0.90;;;0.50;;
51529;SDS011;37613;51.788;21.582;2022-07-29T11:25:26;1.30;;;0.80;;
51529;SDS011;37613;51.788;21.582;2022-07-29T11:29:28;1.60;;;0.70;;
51529;SDS011;37613;51.788;21.582;2022-07-29T11:38:24;3.50;;;1.20;;
51529;SDS011;37613;51.788;21.582;2022-07-29T11:46:48;1.80;;;0.70;;
51529;SDS011;37613;51.788;21.582;2022-07-29T11:50:52;5.80;;;1.80;;
51529;SDS011;37613;51.788;21.582;2022-07-29T11:54:54;1.10;;;0.70;;
51529;SDS011;37613;51.788;21.582;2022-07-29T11:59:03;2.20;;;0.60;;
51529;SDS011;37613;51.788;21.582;2022-07-29T12:03:09;0.80;;;0.60;;
51529;SDS011;37613;51.788;21.582;2022-07-29T12:07:12;6.80;;;1.10;;
51529;SDS011;37613;51.788;21.582;2022-07-29T12:11:17;3.90;;;0.70;;
51529;SDS011;37613;51.788;21.582;2022-07-29T12:15:23;2.30;;;1.10;;
51529;SDS011;37613;51.788;21.582;2022-07-29T12:19:27;0.80;;;0.60;;
51529;SDS011;37613;51.788;21.582;2022-07-29T12:23:31;2.10;;;0.80;;
51529;SDS011;37613;51.788;21.582;2022-07-29T12:27:34;2.60;;;0.80;;
51529;SDS011;37613;51.788;21.582;2022-07-29T12:31:36;2.20;;;0.80;;
51529;SDS011;37613;51.788;21.582;2022-07-29T12:35:40;4.90;;;0.80;;
51529;SDS011;37613;51.788;21.582;2022-07-29T12:39:44;4.70;;;0.80;;
51529;SDS011;37613;51.788;21.582;2022-07-29T12:43:53;1.00;;;0.60;;
51529;SDS011;37613;51.788;21.582;2022-07-29T12:47:56;2.40;;;0.90;;
51529;SDS011;37613;51.788;21.582;2022-07-29T12:51:58;1.80;;;0.80;;
51529;SDS011;37613;51.788;21.582;2022-07-29T12:56:00;2.70;;;1.30;;
51529;SDS011;37613;51.788;21.582;2022-07-29T13:00:06;0.80;;;0.60;;
51529;SDS011;37613;51.788;21.582;2022-07-29T13:04:11;1.90;;;0.70;;
51529;SDS011;37613;51.788;21.582;2022-07-29T13:08:26;1.00;;;0.60;;
51529;SDS011;37613;51.788;21.582;2022-07-29T13:12:28;0.90;;;0.60;;
51529;SDS011;37613;51.788;21.582;2022-07-29T13:16:30;1.10;;;0.70;;
51529;SDS011;37613;51.788;21.582;2022-07-29T13:20:31;1.10;;;0.50;;
51529;SDS011;37613;51.788;21.582;2022-07-29T13:24:34;0.90;;;0.50;;
51529;SDS011;37613;51.788;21.582;2022-07-29T13:28:46;1.30;;;0.60;;
51529;SDS011;37613;51.788;21.582;2022-07-29T13:32:47;3.00;;;0.70;;
51529;SDS011;37613;51.788;21.582;2022-07-29T13:36:50;1.10;;;0.50;;
51529;SDS011;37613;51.788;21.582;2022-07-29T13:40:51;1.30;;;0.70;;
51529;SDS011;37613;51.788;21.582;2022-07-29T13:44:54;0.90;;;0.70;;
51529;SDS011;37613;51.788;21.582;2022-07-29T13:48:56;1.20;;;0.60;;
51529;SDS011;37613;51.788;21.582;2022-07-29T13:52:58;1.30;;;0.60;;
51529;SDS011;37613;51.788;21.582;2022-07-29T13:57:00;0.70;;;0.50;;
51529;SDS011;37613;51.788;21.582;2022-07-29T14:05:07;2.80;;;0.50;;
51529;SDS011;37613;51.788;21.582;2022-07-29T14:09:11;4.00;;;0.60;;
51529;SDS011;37613;51.788;21.582;2022-07-29T14:13:12;2.00;;;0.70;;
51529;SDS011;37613;51.788;21.582;2022-07-29T14:17:14;2.10;;;0.90;;
51529;SDS011;37613;51.788;21.582;2022-07-29T14:21:16;2.00;;;0.60;;
51529;SDS011;37613;51.788;21.582;2022-07-29T14:25:18;3.80;;;0.80;;
51529;SDS011;37613;51.788;21.582;2022-07-29T14:29:20;5.20;;;0.90;;
51529;SDS011;37613;51.788;21.582;2022-07-29T14:37:24;1.50;;;0.70;;
51529;SDS011;37613;51.788;21.582;2022-07-29T14:41:25;1.90;;;0.60;;
51529;SDS011;37613;51.788;21.582;2022-07-29T14:45:29;2.70;;;1.30;;
51529;SDS011;37613;51.788;21.582;2022-07-29T14:49:31;1.80;;;0.50;;
51529;SDS011;37613;51.788;21.582;2022-07-29T14:53:36;7.50;;;4.50;;
51529;SDS011;37613;51.788;21.582;2022-07-29T14:57:38;2.70;;;2.00;;
51529;SDS011;37613;51.788;21.582;2022-07-29T15:01:39;4.50;;;1.60;;
51529;SDS011;37613;51.788;21.582;2022-07-29T15:05:41;1.00;;;0.80;;
51529;SDS011;37613;51.788;21.582;2022-07-29T15:09:44;4.00;;;3.20;;
51529;SDS011;37613;51.788;21.582;2022-07-29T15:13:46;2.20;;;1.50;;
51529;SDS011;37613;51.788;21.582;2022-07-29T15:17:48;2.50;;;0.70;;
51529;SDS011;37613;51.788;21.582;2022-07-29T15:21:50;5.50;;;0.90;;
51529;SDS011;37613;51.788;21.582;2022-07-29T15:25:52;3.60;;;1.40;;
51529;SDS011;37613;51.788;21.582;2022-07-29T15:29:53;8.80;;;1.10;;
51529;SDS011;37613;51.788;21.582;2022-07-29T15:33:55;7.40;;;0.80;;
51529;SDS011;37613;51.788;21.582;2022-07-29T15:37:57;3.80;;;0.70;;
51529;SDS011;37613;51.788;21.582;2022-07-29T15:42:00;4.30;;;1.00;;
51529;SDS011;37613;51.788;21.582;2022-07-29T15:46:07;0.50;;;0.50;;
51529;SDS011;37613;51.788;21.582;2022-07-29T15:50:27;2.00;;;0.70;;
51529;SDS011;37613;51.788;21.582;2022-07-29T15:54:29;4.40;;;0.80;;
51529;SDS011;37613;51.788;21.582;2022-07-29T15:58:31;4.00;;;1.30;;
51529;SDS011;37613;51.788;21.582;2022-07-29T16:02:36;3.20;;;0.90;;
51529;SDS011;37613;51.788;21.582;2022-07-29T16:06:38;2.00;;;0.60;;
51529;SDS011;37613;51.788;21.582;2022-07-29T16:10:40;9.00;;;1.30;;
51529;SDS011;37613;51.788;21.582;2022-07-29T16:14:42;5.80;;;2.20;;
51529;SDS011;37613;51.788;21.582;2022-07-29T16:18:44;2.40;;;1.70;;
51529;SDS011;37613;51.788;21.582;2022-07-29T16:22:47;4.80;;;1.20;;
51529;SDS011;37613;51.788;21.582;2022-07-29T16:26:49;5.30;;;1.40;;
51529;SDS011;37613;51.788;21.582;2022-07-29T16:30:50;2.50;;;1.30;;
51529;SDS011;37613;51.788;21.582;2022-07-29T16:34:52;4.80;;;2.60;;
51529;SDS011;37613;51.788;21.582;2022-07-29T16:38:54;3.00;;;2.40;;
51529;SDS011;37613;51.788;21.582;2022-07-29T16:42:56;1.90;;;1.40;;
51529;SDS011;37613;51.788;21.582;2022-07-29T16:46:58;3.30;;;1.80;;
51529;SDS011;37613;51.788;21.582;2022-07-29T16:51:00;2.70;;;2.20;;
51529;SDS011;37613;51.788;21.582;2022-07-29T16:55:02;4.10;;;3.00;;
51529;SDS011;37613;51.788;21.582;2022-07-29T16:59:04;8.50;;;3.80;;
51529;SDS011;37613;51.788;21.582;2022-07-29T17:03:06;4.30;;;3.00;;
51529;SDS011;37613;51.788;21.582;2022-07-29T17:07:08;7.00;;;3.60;;
51529;SDS011;37613;51.788;21.582;2022-07-29T17:11:10;4.90;;;2.50;;
51529;SDS011;37613;51.788;21.582;2022-07-29T17:15:12;8.30;;;3.90;;
51529;SDS011;37613;51.788;21.582;2022-07-29T17:23:15;4.40;;;3.30;;
51529;SDS011;37613;51.788;21.582;2022-07-29T17:27:17;4.90;;;3.70;;
51529;SDS011;37613;51.788;21.582;2022-07-29T17:31:20;2.60;;;1.40;;
51529;SDS011;37613;51.788;21.582;2022-07-29T17:35:21;5.00;;;1.00;;
51529;SDS011;37613;51.788;21.582;2022-07-29T17:39:42;1.50;;;0.80;;
51529;SDS011;37613;51.788;21.582;2022-07-29T17:47:46;10.70;;;1.00;;
51529;SDS011;37613;51.788;21.582;2022-07-29T17:51:48;1.60;;;0.80;;
51529;SDS011;37613;51.788;21.582;2022-07-29T17:59:52;1.80;;;1.10;;
51529;SDS011;37613;51.788;21.582;2022-07-29T18:03:53;5.40;;;1.10;;
51529;SDS011;37613;51.788;21.582;2022-07-29T18:07:55;3.30;;;1.40;;
51529;SDS011;37613;51.788;21.582;2022-07-29T18:11:58;3.70;;;2.10;;
51529;SDS011;37613;51.788;21.582;2022-07-29T18:15:59;3.90;;;1.50;;
51529;SDS011;37613;51.788;21.582;2022-07-29T18:20:01;4.80;;;1.90;;
51529;SDS011;37613;51.788;21.582;2022-07-29T18:28:06;8.20;;;5.50;;
51529;SDS011;37613;51.788;21.582;2022-07-29T18:32:08;8.30;;;5.50;;
51529;SDS011;37613;51.788;21.582;2022-07-29T18:36:10;2.80;;;2.00;;
51529;SDS011;37613;51.788;21.582;2022-07-29T18:40:11;2.90;;;1.90;;
51529;SDS011;37613;51.788;21.582;2022-07-29T18:44:13;7.50;;;3.40;;
51529;SDS011;37613;51.788;21.582;2022-07-29T18:48:17;6.20;;;3.20;;
51529;SDS011;37613;51.788;21.582;2022-07-29T18:52:19;13.60;;;8.10;;
51529;SDS011;37613;51.788;21.582;2022-07-29T18:56:21;12.00;;;5.00;;
51529;SDS011;37613;51.788;21.582;2022-07-29T19:00:23;7.00;;;3.80;;
51529;SDS011;37613;51.788;21.582;2022-07-29T19:04:26;11.50;;;4.40;;
51529;SDS011;37613;51.788;21.582;2022-07-29T19:08:28;5.10;;;2.90;;
51529;SDS011;37613;51.788;21.582;2022-07-29T19:12:30;5.00;;;2.50;;
51529;SDS011;37613;51.788;21.582;2022-07-29T19:16:31;6.10;;;2.60;;
51529;SDS011;37613;51.788;21.582;2022-07-29T19:20:36;3.80;;;2.30;;
51529;SDS011;37613;51.788;21.582;2022-07-29T19:24:39;7.20;;;3.00;;
51529;SDS011;37613;51.788;21.582;2022-07-29T19:28:41;5.50;;;3.10;;
51529;SDS011;37613;51.788;21.582;2022-07-29T19:32:43;4.40;;;2.70;;
51529;SDS011;37613;51.788;21.582;2022-07-29T19:36:45;7.50;;;4.10;;
51529;SDS011;37613;51.788;21.582;2022-07-29T19:40:47;6.60;;;2.80;;
51529;SDS011;37613;51.788;21.582;2022-07-29T19:44:49;2.90;;;1.90;;
51529;SDS011;37613;51.788;21.582;2022-07-29T19:48:50;6.80;;;2.40;;
51529;SDS011;37613;51.788;21.582;2022-07-29T19:52:53;5.60;;;2.90;;
51529;SDS011;37613;51.788;21.582;2022-07-29T19:56:56;7.40;;;3.00;;
51529;SDS011;37613;51.788;21.582;2022-07-29T20:00:57;5.00;;;1.60;;
51529;SDS011;37613;51.788;21.582;2022-07-29T20:04:59;4.90;;;1.80;;
51529;SDS011;37613;51.788;21.582;2022-07-29T20:09:01;6.00;;;1.60;;
51529;SDS011;37613;51.788;21.582;2022-07-29T20:17:05;2.70;;;1.80;;
51529;SDS011;37613;51.788;21.582;2022-07-29T20:21:07;1.70;;;1.50;;
51529;SDS011;37613;51.788;21.582;2022-07-29T20:25:09;3.90;;;1.70;;
51529;SDS011;37613;51.788;21.582;2022-07-29T20:29:12;3.60;;;1.50;;
51529;SDS011;37613;51.788;21.582;2022-07-29T20:33:14;6.60;;;1.70;;
51529;SDS011;37613;51.788;21.582;2022-07-29T20:37:16;2.60;;;1.70;;
51529;SDS011;37613;51.788;21.582;2022-07-29T20:41:21;4.50;;;1.90;;
51529;SDS011;37613;51.788;21.582;2022-07-29T20:45:23;4.40;;;1.60;;
51529;SDS011;37613;51.788;21.582;2022-07-29T20:49:25;4.20;;;1.70;;
51529;SDS011;37613;51.788;21.582;2022-07-29T20:53:27;6.10;;;1.70;;
51529;SDS011;37613;51.788;21.582;2022-07-29T20:57:29;2.00;;;1.30;;
51529;SDS011;37613;51.788;21.582;2022-07-29T21:01:30;5.60;;;3.20;;
51529;SDS011;37613;51.788;21.582;2022-07-29T21:05:32;9.10;;;1.60;;
51529;SDS011;37613;51.788;21.582;2022-07-29T21:09:34;1.90;;;1.30;;
51529;SDS011;37613;51.788;21.582;2022-07-29T21:13:36;6.60;;;1.90;;
51529;SDS011;37613;51.788;21.582;2022-07-29T21:17:40;4.80;;;2.20;;
51529;SDS011;37613;51.788;21.582;2022-07-29T21:21:47;3.50;;;1.40;;
51529;SDS011;37613;51.788;21.582;2022-07-29T21:25:49;3.80;;;1.40;;
51529;SDS011;37613;51.788;21.582;2022-07-29T21:29:52;3.10;;;1.30;;
51529;SDS011;37613;51.788;21.582;2022-07-29T21:33:54;3.30;;;1.60;;
51529;SDS011;37613;51.788;21.582;2022-07-29T21:37:56;1.90;;;1.40;;
51529;SDS011;37613;51.788;21.582;2022-07-29T21:41:57;1.40;;;1.30;;
51529;SDS011;37613;51.788;21.582;2022-07-29T21:45:59;1.50;;;1.10;;
51529;SDS011;37613;51.788;21.582;2022-07-29T21:50:01;2.20;;;1.30;;
51529;SDS011;37613;51.788;21.582;2022-07-29T21:54:04;3.20;;;1.70;;
51529;SDS011;37613;51.788;21.582;2022-07-29T21:58:08;3.10;;;1.60;;
51529;SDS011;37613;51.788;21.582;2022-07-29T22:02:15;2.40;;;1.30;;
51529;SDS011;37613;51.788;21.582;2022-07-29T22:06:17;2.40;;;1.40;;
51529;SDS011;37613;51.788;21.582;2022-07-29T22:10:19;4.30;;;2.10;;
51529;SDS011;37613;51.788;21.582;2022-07-29T22:14:21;6.30;;;1.90;;
51529;SDS011;37613;51.788;21.582;2022-07-29T22:18:23;4.70;;;1.80;;
51529;SDS011;37613;51.788;21.582;2022-07-29T22:22:25;4.30;;;2.00;;
51529;SDS011;37613;51.788;21.582;2022-07-29T22:26:27;4.30;;;1.80;;
51529;SDS011;37613;51.788;21.582;2022-07-29T22:30:29;5.20;;;2.00;;
51529;SDS011;37613;51.788;21.582;2022-07-29T22:34:31;4.50;;;2.20;;
51529;SDS011;37613;51.788;21.582;2022-07-29T22:38:33;4.40;;;1.40;;
51529;SDS011;37613;51.788;21.582;2022-07-29T22:42:35;2.60;;;1.70;;
51529;SDS011;37613;51.788;21.582;2022-07-29T22:46:39;4.70;;;1.40;;
51529;SDS011;37613;51.788;21.582;2022-07-29T22:50:41;2.70;;;1.40;;
51529;SDS011;37613;51.788;21.582;2022-07-29T22:54:42;3.10;;;1.10;;
51529;SDS011;37613;51.788;21.582;2022-07-29T22:58:44;6.60;;;1.90;;
51529;SDS011;37613;51.788;21.582;2022-07-29T23:02:46;3.60;;;1.80;;
51529;SDS011;37613;51.788;21.582;2022-07-29T23:06:48;8.30;;;1.70;;
51529;SDS011;37613;51.788;21.582;2022-07-29T23:10:51;4.30;;;2.00;;
51529;SDS011;37613;51.788;21.582;2022-07-29T23:14:53;4.10;;;1.40;;
51529;SDS011;37613;51.788;21.582;2022-07-29T23:18:55;2.80;;;1.20;;
51529;SDS011;37613;51.788;21.582;2022-07-29T23:22:56;3.50;;;1.60;;
51529;SDS011;37613;51.788;21.582;2022-07-29T23:26:58;1.30;;;1.20;;
51529;SDS011;37613;51.788;21.582;2022-07-29T23:31:00;2.90;;;1.30;;
51529;SDS011;37613;51.788;21.582;2022-07-29T23:35:02;3.40;;;1.30;;
51529;SDS011;37613;51.788;21.582;2022-07-29T23:39:08;3.70;;;1.40;;
51529;SDS011;37613;51.788;21.582;2022-07-29T23:43:13;2.80;;;1.30;;
